Time;durP1;ratioP1;P1;durP2;ratioP2;P2;SDS_P1;SDS_P2;PMS_P1;PMS_P2;Temp;Humidity;BMP_temperature;BMP_pressure;BME280_temperature;BME280_humidity;BME280_pressure;Samples;Min_cycle;Max_cycle;Signal;HPM_P1;HPM_P2
2021/09/10 00:02:12;;;;;;;;;2.00;2.00;;;;;22.80;100.00;100885.63;5036847;28;45507;-77
2021/09/10 00:04:37;;;;;;;;;2.50;2.50;;;;;22.87;100.00;100896.78;5034754;28;46142;-76
2021/09/10 00:07:03;;;;;;;;;2.00;1.00;;;;;22.85;100.00;100901.31;5033019;28;45495;-77
2021/09/10 00:09:28;;;;;;;;;2.50;2.00;;;;;22.87;100.00;100908.28;5035408;28;45464;-77
2021/09/10 00:11:54;;;;;;;;;2.00;2.00;;;;;22.87;100.00;100910.97;5035075;28;45431;-77
2021/09/10 00:14:19;;;;;;;;;3.00;2.75;;;;;22.80;100.00;100893.59;5034654;28;45782;-77
2021/09/10 00:16:44;;;;;;;;;2.50;1.00;;;;;22.83;100.00;100906.75;5002274;28;45258;-77
2021/09/10 00:19:10;;;;;;;;;2.75;2.75;;;;;22.77;100.00;100901.78;5016488;28;45499;-77
2021/09/10 00:21:35;;;;;;;;;1.75;1.75;;;;;22.74;100.00;100896.66;5031285;28;45476;-77
2021/09/10 00:24:01;;;;;;;;;3.00;2.75;;;;;22.75;100.00;100903.69;5036309;28;46221;-76
2021/09/10 00:26:26;;;;;;;;;1.50;1.50;;;;;22.76;100.00;100897.41;5034731;28;45454;-76
2021/09/10 00:28:52;;;;;;;;;2.50;2.50;;;;;22.76;100.00;100904.53;5036406;28;45388;-76
2021/09/10 00:31:17;;;;;;;;;1.25;1.25;;;;;22.69;100.00;100905.88;5034614;28;45502;-76
2021/09/10 00:33:43;;;;;;;;;3.00;3.00;;;;;22.68;100.00;100902.38;5036251;28;45443;-76
2021/09/10 00:36:08;;;;;;;;;2.75;2.00;;;;;22.68;100.00;100897.06;5034358;28;45206;-76
2021/09/10 00:38:34;;;;;;;;;2.75;2.75;;;;;22.62;100.00;100886.75;5036642;28;45349;-76
2021/09/10 00:41:00;;;;;;;;;2.75;2.50;;;;;22.66;100.00;100898.09;5028749;28;45279;-76
2021/09/10 00:43:25;;;;;;;;;2.00;2.00;;;;;22.65;100.00;100897.25;5031585;28;46679;-76
2021/09/10 00:45:51;;;;;;;;;3.50;3.00;;;;;22.68;100.00;100901.50;5034553;28;45731;-76
2021/09/10 00:48:20;;;;;;;;;2.00;2.00;;;;;22.67;100.00;100911.31;5016217;28;45364;-77
2021/09/10 00:50:47;;;;;;;;;1.50;1.50;;;;;22.44;100.00;100874.63;5016639;28;45533;-76
2021/09/10 00:53:13;;;;;;;;;1.50;1.50;;;;;22.62;100.00;100908.06;5017931;28;48358;-76
2021/09/10 00:55:41;;;;;;;;;2.75;2.75;;;;;22.52;100.00;100909.59;5016356;28;45797;-76
2021/09/10 00:58:06;;;;;;;;;3.00;3.00;;;;;22.52;100.00;100913.09;5037549;28;45528;-76
2021/09/10 01:00:32;;;;;;;;;2.50;1.50;;;;;22.56;100.00;100914.63;5039582;28;45416;-76
2021/09/10 01:02:57;;;;;;;;;4.00;4.00;;;;;22.52;100.00;100901.59;5023603;28;45607;-76
2021/09/10 01:05:23;;;;;;;;;2.75;2.75;;;;;22.62;100.00;100918.69;5019349;28;45528;-76
2021/09/10 01:07:50;;;;;;;;;2.00;2.00;;;;;22.62;100.00;100927.53;5031220;28;45749;-76
2021/09/10 01:10:16;;;;;;;;;2.50;2.00;;;;;22.60;100.00;100929.44;5037570;28;45460;-76
2021/09/10 01:12:42;;;;;;;;;3.00;3.00;;;;;22.60;100.00;100923.25;5039307;28;46329;-76
2021/09/10 01:15:09;;;;;;;;;2.00;2.00;;;;;22.70;100.00;100942.19;5031879;28;45459;-76
2021/09/10 01:17:38;;;;;;;;;4.25;3.00;;;;;22.67;100.00;100921.97;5020551;28;45337;-76
2021/09/10 01:20:06;;;;;;;;;4.00;3.00;;;;;22.76;100.00;100937.34;5029204;28;45441;-76
2021/09/10 01:22:32;;;;;;;;;2.00;2.00;;;;;22.78;100.00;100927.44;5019443;28;45729;-77
2021/09/10 01:25:17;;;;;;;;;1.50;1.50;;;;;22.82;100.00;100934.31;5026925;28;45425;-77
2021/09/10 01:27:48;;;;;;;;;3.00;3.00;;;;;22.71;100.00;100907.50;5024868;28;45650;-76
2021/09/10 01:30:17;;;;;;;;;3.00;3.00;;;;;22.83;100.00;100928.06;5037281;28;45415;-77
2021/09/10 01:32:43;;;;;;;;;2.25;2.25;;;;;22.78;100.00;100926.59;5037396;28;47595;-78
2021/09/10 01:35:10;;;;;;;;;5.25;3.00;;;;;22.85;100.00;100943.94;5019968;28;45460;-77
2021/09/10 01:37:36;;;;;;;;;3.50;3.00;;;;;22.76;100.00;100921.38;5018997;28;45382;-77
2021/09/10 01:40:04;;;;;;;;;2.25;2.25;;;;;22.87;100.00;100945.56;5017102;28;45227;-76
2021/09/10 01:42:30;;;;;;;;;3.00;3.00;;;;;22.85;100.00;100941.25;5036985;28;46223;-77
2021/09/10 01:44:55;;;;;;;;;3.25;3.25;;;;;22.75;100.00;100929.47;5038687;28;45374;-76
2021/09/10 01:47:20;;;;;;;;;3.00;3.00;;;;;22.82;100.00;100947.63;5037080;28;45529;-77
2021/09/10 01:49:46;;;;;;;;;2.00;2.00;;;;;22.76;100.00;100939.16;5037240;28;45341;-76
2021/09/10 01:52:11;;;;;;;;;2.50;2.50;;;;;22.65;100.00;100934.50;5018693;28;45393;-75
2021/09/10 01:54:37;;;;;;;;;2.00;2.00;;;;;22.73;100.00;100950.84;5019316;28;45325;-76
2021/09/10 01:57:03;;;;;;;;;2.00;2.00;;;;;22.72;100.00;100948.28;5038772;28;45418;-75
2021/09/10 01:59:28;;;;;;;;;3.00;3.00;;;;;22.75;100.00;100950.75;5038714;28;45356;-77
2021/09/10 02:01:54;;;;;;;;;2.00;2.00;;;;;22.65;100.00;100944.28;5036847;28;45337;-76
2021/09/10 02:04:19;;;;;;;;;2.00;2.00;;;;;22.67;100.00;100937.94;5038685;28;45302;-76
2021/09/10 02:06:45;;;;;;;;;3.25;3.00;;;;;22.70;100.00;100948.38;5020460;28;45455;-77
2021/09/10 02:09:11;;;;;;;;;2.00;2.00;;;;;22.58;100.00;100922.50;5018637;28;45497;-76
2021/09/10 02:11:37;;;;;;;;;2.25;2.25;;;;;22.63;100.00;100939.03;5031671;28;46728;-76
2021/09/10 02:14:03;;;;;;;;;3.25;2.75;;;;;22.59;100.00;100935.72;5038177;28;45422;-75
2021/09/10 02:16:29;;;;;;;;;3.50;3.50;;;;;22.63;100.00;100933.72;5034734;28;45477;-76
2021/09/10 02:18:54;;;;;;;;;4.00;2.75;;;;;22.71;100.00;100950.09;5038476;28;45266;-77
2021/09/10 02:21:19;;;;;;;;;3.50;3.00;;;;;22.71;100.00;100941.25;5036322;28;46225;-76
2021/09/10 02:23:45;;;;;;;;;2.50;2.00;;;;;22.70;100.00;100944.88;5038104;28;45690;-76
2021/09/10 02:26:10;;;;;;;;;4.25;3.75;;;;;22.68;100.00;100947.63;5035997;28;45466;-76
2021/09/10 02:28:35;;;;;;;;;3.00;3.00;;;;;22.57;100.00;100934.09;5019510;28;45442;-77
2021/09/10 02:31:01;;;;;;;;;3.00;3.00;;;;;22.52;100.00;100941.50;5037840;28;45555;-77
2021/09/10 02:33:27;;;;;;;;;4.00;4.00;;;;;22.45;100.00;100942.84;5018529;28;45402;-77
2021/09/10 02:35:54;;;;;;;;;2.25;2.25;;;;;22.47;100.00;100949.78;5019008;28;45220;-77
2021/09/10 02:38:20;;;;;;;;;3.00;3.00;;;;;22.41;100.00;100941.31;5001157;28;45459;-76
2021/09/10 02:40:45;;;;;;;;;4.00;3.00;;;;;22.44;100.00;100954.44;4999931;28;46943;-77
2021/09/10 02:43:11;;;;;;;;;2.00;1.25;;;;;22.44;100.00;100952.63;5026787;28;45397;-77
2021/09/10 02:45:36;;;;;;;;;3.75;3.00;;;;;22.35;100.00;100936.34;5036189;28;45214;-77
2021/09/10 02:48:02;;;;;;;;;4.25;4.00;;;;;22.25;100.00;100920.94;5036456;28;45217;-77
2021/09/10 02:50:27;;;;;;;;;3.00;3.00;;;;;22.36;100.00;100957.53;5037610;28;46969;-76
2021/09/10 02:52:53;;;;;;;;;4.25;3.00;;;;;22.15;100.00;100922.44;5017950;28;45564;-76
2021/09/10 02:55:18;;;;;;;;;4.00;3.00;;;;;22.31;100.00;100948.97;5033875;28;45637;-76
2021/09/10 02:57:44;;;;;;;;;3.75;3.75;;;;;22.25;100.00;100950.22;5017734;28;45472;-77
2021/09/10 03:00:10;;;;;;;;;3.00;2.75;;;;;22.23;100.00;100937.97;5000701;28;46303;-76
2021/09/10 03:02:36;;;;;;;;;2.00;2.00;;;;;22.33;100.00;100954.22;4999786;28;45496;-76
2021/09/10 03:05:03;;;;;;;;;4.00;3.00;;;;;22.24;100.00;100937.84;5026910;28;45477;-76
2021/09/10 03:07:28;;;;;;;;;3.25;3.00;;;;;22.23;100.00;100925.50;4998033;28;45646;-76
2021/09/10 03:09:54;;;;;;;;;3.00;3.00;;;;;22.19;100.00;100924.00;5009321;28;45511;-76
2021/09/10 03:12:19;;;;;;;;;3.00;3.00;;;;;22.25;100.00;100936.06;5017529;28;45414;-76
2021/09/10 03:14:45;;;;;;;;;2.00;2.00;;;;;22.15;100.00;100919.78;5026267;28;45612;-78
2021/09/10 03:17:10;;;;;;;;;3.00;3.00;;;;;22.23;100.00;100935.28;5018079;28;45263;-76
2021/09/10 03:19:35;;;;;;;;;4.00;4.00;;;;;22.23;100.00;100938.81;5017741;28;45464;-75
2021/09/10 03:22:01;;;;;;;;;3.25;3.25;;;;;22.25;100.00;100941.38;5024809;28;45470;-75
2021/09/10 03:24:26;;;;;;;;;4.00;3.00;;;;;22.20;100.00;100936.34;5026440;28;45246;-76
2021/09/10 03:26:51;;;;;;;;;4.00;3.00;;;;;22.08;100.00;100923.75;5018639;28;45464;-76
2021/09/10 03:29:17;;;;;;;;;3.50;3.00;;;;;22.15;100.00;100941.06;5017238;28;46175;-76
2021/09/10 03:31:42;;;;;;;;;4.25;3.50;;;;;22.09;100.00;100936.09;5028568;28;45500;-77
2021/09/10 03:34:08;;;;;;;;;3.75;3.75;;;;;22.00;100.00;100931.31;5019387;28;45359;-77
2021/09/10 03:36:34;;;;;;;;;4.50;4.50;;;;;22.04;100.00;100932.88;5028373;28;46674;-77
2021/09/10 03:38:59;;;;;;;;;4.00;2.75;;;;;22.08;100.00;100942.38;5016892;28;46575;-76
2021/09/10 03:41:25;;;;;;;;;4.00;3.75;;;;;22.09;100.00;100945.88;5016966;28;45500;-76
2021/09/10 03:43:52;;;;;;;;;5.00;2.50;;;;;22.11;100.00;100949.31;4995792;28;45500;-77
2021/09/10 03:46:19;;;;;;;;;4.00;4.00;;;;;22.00;100.00;100932.16;4999194;28;45402;-76
2021/09/10 03:48:44;;;;;;;;;5.25;5.00;;;;;22.05;100.00;100939.88;5016515;28;45572;-76
2021/09/10 03:51:09;;;;;;;;;5.00;5.00;;;;;22.02;100.00;100938.25;5016962;28;45168;-76
2021/09/10 03:53:35;;;;;;;;;5.00;3.75;;;;;22.00;100.00;100942.78;5033132;28;45454;-76
2021/09/10 03:56:01;;;;;;;;;5.00;3.00;;;;;21.92;100.00;100922.91;5037182;28;45313;-76
2021/09/10 03:58:26;;;;;;;;;5.50;4.00;;;;;22.02;100.00;100942.69;5033860;28;46329;-76
2021/09/10 04:00:51;;;;;;;;;6.00;5.00;;;;;22.08;100.00;100952.16;5017561;28;45423;-76
2021/09/10 04:03:17;;;;;;;;;5.75;5.00;;;;;22.04;100.00;100934.63;5021528;28;45731;-77
2021/09/10 04:05:42;;;;;;;;;6.00;5.00;;;;;22.05;100.00;100941.69;5037053;28;45303;-76
2021/09/10 04:08:08;;;;;;;;;5.00;5.00;;;;;22.05;100.00;100939.03;5033734;28;45564;-77
2021/09/10 04:10:34;;;;;;;;;5.00;5.00;;;;;22.05;100.00;100942.56;5016675;28;45290;-76
2021/09/10 04:12:59;;;;;;;;;5.00;4.50;;;;;21.99;100.00;100937.56;5017646;28;45446;-76
2021/09/10 04:15:25;;;;;;;;;5.00;5.00;;;;;22.01;100.00;100941.84;5032987;28;45444;-77
2021/09/10 04:17:50;;;;;;;;;6.00;5.00;;;;;21.96;100.00;100938.59;5035987;28;46471;-77
2021/09/10 04:20:16;;;;;;;;;5.00;5.00;;;;;21.92;100.00;100928.22;5006381;28;45402;-77
2021/09/10 04:22:41;;;;;;;;;6.00;5.00;;;;;22.00;100.00;100952.56;5016554;28;45394;-76
2021/09/10 04:25:08;;;;;;;;;5.00;5.00;;;;;21.93;100.00;100930.78;5017541;28;45404;-77
2021/09/10 04:27:33;;;;;;;;;5.00;4.25;;;;;21.97;100.00;100940.31;5016212;28;47724;-77
2021/09/10 04:29:59;;;;;;;;;4.25;4.25;;;;;21.98;100.00;100935.84;5025643;28;45434;-77
2021/09/10 04:32:25;;;;;;;;;6.00;5.00;;;;;22.04;100.00;100938.19;5020576;28;45650;-77
2021/09/10 04:34:50;;;;;;;;;6.00;4.00;;;;;21.99;100.00;100921.63;5027596;28;45443;-77
2021/09/10 04:37:16;;;;;;;;;4.75;4.75;;;;;22.14;100.00;100935.81;5019835;28;45433;-77
2021/09/10 04:39:41;;;;;;;;;7.00;6.00;;;;;22.19;100.00;100942.59;5020916;28;45278;-77
2021/09/10 04:42:07;;;;;;;;;4.75;4.50;;;;;22.19;100.00;100939.94;5019684;28;45311;-77
2021/09/10 04:44:32;;;;;;;;;4.75;4.25;;;;;22.24;100.00;100939.66;5021178;28;45460;-75
2021/09/10 04:46:58;;;;;;;;;6.25;6.25;;;;;22.24;100.00;100937.84;5019544;28;47173;-78
2021/09/10 04:49:23;;;;;;;;;6.25;5.75;;;;;22.28;100.00;100941.19;5022501;28;45466;-77
2021/09/10 04:51:49;;;;;;;;;7.25;6.00;;;;;22.33;100.00;100943.56;5019627;28;45452;-77
2021/09/10 04:54:16;;;;;;;;;6.00;5.50;;;;;22.37;100.00;100945.09;5034605;28;45415;-75
2021/09/10 04:56:42;;;;;;;;;8.75;7.00;;;;;22.42;100.00;100951.88;5026309;28;47533;-77
2021/09/10 04:59:08;;;;;;;;;6.00;6.00;;;;;22.47;100.00;100951.59;5019664;28;45513;-76
2021/09/10 05:01:33;;;;;;;;;7.00;6.00;;;;;22.49;100.00;100947.03;5020686;28;45259;-76
2021/09/10 05:03:59;;;;;;;;;6.75;6.00;;;;;22.42;100.00;100945.69;5019553;28;45366;-76
2021/09/10 05:06:25;;;;;;;;;13.50;12.50;;;;;22.42;100.00;100949.22;5032600;28;47031;-76
2021/09/10 05:08:50;;;;;;;;;14.00;13.25;;;;;22.45;100.00;100954.34;5039346;28;45349;-76
2021/09/10 05:11:16;;;;;;;;;5.50;4.75;;;;;22.41;100.00;100946.66;5036555;28;45330;-76
2021/09/10 05:13:41;;;;;;;;;6.00;5.75;;;;;22.48;100.00;100963.94;5019744;28;45422;-76
2021/09/10 05:16:06;;;;;;;;;4.75;4.00;;;;;22.47;100.00;100962.22;5021037;28;46307;-75
2021/09/10 05:18:32;;;;;;;;;4.25;4.25;;;;;22.43;100.00;100964.22;5028514;28;45407;-76
2021/09/10 05:20:59;;;;;;;;;5.00;5.00;;;;;22.34;100.00;100964.75;5026236;28;45485;-75
2021/09/10 05:23:24;;;;;;;;;3.25;3.00;;;;;22.36;100.00;100969.97;5039453;28;45324;-76
2021/09/10 05:25:50;;;;;;;;;6.00;5.25;;;;;22.28;100.00;100968.66;5039244;28;45653;-76
2021/09/10 05:28:15;;;;;;;;;6.50;6.25;;;;;22.34;100.00;100982.53;5036996;28;45401;-76
2021/09/10 05:30:41;;;;;;;;;6.50;5.00;;;;;22.30;100.00;100972.06;5039129;28;45512;-76
2021/09/10 05:33:06;;;;;;;;;7.00;6.00;;;;;22.34;100.00;100982.53;5020264;28;45323;-76
2021/09/10 05:35:31;;;;;;;;;4.00;4.00;;;;;22.31;100.00;100983.56;5018747;28;47236;-76
2021/09/10 05:37:57;;;;;;;;;6.25;5.75;;;;;22.24;100.00;100966.25;5018849;28;45389;-74
2021/09/10 05:40:22;;;;;;;;;4.25;3.75;;;;;22.26;100.00;100973.19;5000929;28;45339;-75
2021/09/10 05:42:49;;;;;;;;;6.00;5.75;;;;;22.25;100.00;100983.94;5029918;28;45489;-75
2021/09/10 05:45:15;;;;;;;;;3.75;3.75;;;;;22.24;100.00;100988.41;5017663;28;46256;-74
2021/09/10 05:47:40;;;;;;;;;5.00;5.00;;;;;22.23;100.00;100992.00;5027210;28;45407;-75
2021/09/10 05:50:06;;;;;;;;;5.75;4.75;;;;;22.22;100.00;101000.09;5037357;28;45217;-74
2021/09/10 05:52:31;;;;;;;;;6.00;5.25;;;;;22.19;100.00;100993.16;5037902;28;45493;-75
2021/09/10 05:54:57;;;;;;;;;4.75;4.75;;;;;22.17;100.00;100989.69;5037093;28;45651;-74
2021/09/10 05:57:22;;;;;;;;;5.25;5.00;;;;;22.13;100.00;100996.13;5037149;28;45279;-75
2021/09/10 05:59:48;;;;;;;;;5.00;5.00;;;;;22.10;100.00;101004.31;5028072;28;45414;-76
2021/09/10 06:02:13;;;;;;;;;5.75;5.00;;;;;22.14;100.00;101011.16;4999840;28;45515;-76
2021/09/10 06:04:39;;;;;;;;;5.50;5.50;;;;;22.12;100.00;101010.38;5017376;28;46005;-76
2021/09/10 06:07:04;;;;;;;;;4.75;4.00;;;;;22.11;100.00;101013.13;5017048;28;45470;-75
2021/09/10 06:09:31;;;;;;;;;7.00;5.00;;;;;22.14;100.00;101027.09;5017436;28;45399;-75
2021/09/10 06:11:56;;;;;;;;;5.50;4.50;;;;;22.11;100.00;101019.31;5017469;28;45421;-76
2021/09/10 06:14:22;;;;;;;;;6.50;6.00;;;;;22.12;100.00;101030.81;5016553;28;46091;-76
2021/09/10 06:16:47;;;;;;;;;6.25;5.25;;;;;22.08;100.00;101019.50;5016807;28;45457;-75
2021/09/10 06:19:13;;;;;;;;;6.00;6.00;;;;;22.05;100.00;101013.50;5017091;28;45394;-76
2021/09/10 06:21:38;;;;;;;;;7.00;6.00;;;;;22.12;100.00;101017.50;5016905;28;45426;-76
2021/09/10 06:24:04;;;;;;;;;6.75;6.50;;;;;22.09;100.00;101023.84;5017175;28;46186;-75
2021/09/10 06:26:29;;;;;;;;;7.00;6.00;;;;;22.09;100.00;101021.19;5017009;28;45346;-74
2021/09/10 06:28:55;;;;;;;;;4.75;4.50;;;;;22.09;100.00;101023.84;5016542;28;45926;-75
2021/09/10 06:31:20;;;;;;;;;7.25;6.50;;;;;21.99;100.00;101014.69;5014509;28;45511;-74
2021/09/10 06:33:46;;;;;;;;;4.50;4.50;;;;;22.08;100.00;101030.13;5016673;28;46004;-74
2021/09/10 06:36:11;;;;;;;;;9.25;7.00;;;;;22.10;100.00;101038.00;5008289;28;45288;-76
2021/09/10 06:38:36;;;;;;;;;7.00;7.00;;;;;22.11;100.00;101029.09;4996919;28;45238;-75
2021/09/10 06:41:02;;;;;;;;;5.75;5.25;;;;;22.12;100.00;101029.00;5003356;28;45499;-75
2021/09/10 06:43:27;;;;;;;;;6.67;5.00;;;;;22.02;100.00;101015.34;4970166;28;1331726;-74
2021/09/10 06:45:53;;;;;;;;;5.75;5.00;;;;;21.97;100.00;101009.44;5017620;28;45452;-76
2021/09/10 06:48:18;;;;;;;;;7.75;6.75;;;;;22.22;100.00;101048.81;5018118;28;45352;-75
2021/09/10 06:50:43;;;;;;;;;6.25;5.25;;;;;22.20;100.00;101042.72;5017642;28;45333;-77
2021/09/10 06:53:09;;;;;;;;;6.00;5.00;;;;;22.25;100.00;101039.81;5016317;28;45440;-75
2021/09/10 06:55:35;;;;;;;;;5.00;4.75;;;;;22.26;100.00;101055.66;5016793;28;45380;-75
2021/09/10 06:58:00;;;;;;;;;7.00;6.00;;;;;22.24;100.00;101057.56;5017468;28;45343;-74
2021/09/10 07:00:25;;;;;;;;;5.25;5.00;;;;;22.19;100.00;101050.81;5000105;28;45363;-75
2021/09/10 07:02:51;;;;;;;;;6.00;5.75;;;;;22.22;100.00;101058.59;5016640;28;45433;-75
2021/09/10 07:05:16;;;;;;;;;7.00;6.00;;;;;22.25;100.00;101069.06;5017233;28;45354;-75
2021/09/10 07:07:42;;;;;;;;;5.00;5.00;;;;;22.26;100.00;101068.97;5017404;28;45512;-75
2021/09/10 07:10:08;;;;;;;;;4.50;4.50;;;;;22.28;100.00;101072.41;5017102;28;45433;-75
2021/09/10 07:12:33;;;;;;;;;6.75;6.00;;;;;22.24;100.00;101067.34;5017592;28;46636;-74
2021/09/10 07:14:59;;;;;;;;;4.00;3.75;;;;;22.19;100.00;101070.28;5017438;28;45231;-75
2021/09/10 07:17:24;;;;;;;;;7.25;5.00;;;;;22.14;100.00;101069.66;5017319;28;45211;-75
2021/09/10 07:19:50;;;;;;;;;8.00;6.25;;;;;22.18;100.00;101079.22;5017471;28;45315;-76
2021/09/10 07:22:15;;;;;;;;;4.25;4.00;;;;;22.17;100.00;101085.44;5017279;28;45421;-74
2021/09/10 07:24:41;;;;;;;;;5.50;4.75;;;;;22.23;100.00;101086.91;5017402;28;45432;-74
2021/09/10 07:27:06;;;;;;;;;5.00;4.75;;;;;22.18;100.00;101063.25;5017224;28;45424;-75
2021/09/10 07:29:32;;;;;;;;;4.75;4.00;;;;;22.26;100.00;101061.00;5017580;28;45168;-74
2021/09/10 07:31:57;;;;;;;;;5.00;4.25;;;;;22.38;100.00;101063.88;5016534;28;45444;-75
2021/09/10 07:34:23;;;;;;;;;7.00;6.25;;;;;22.33;100.00;101024.22;5017292;28;45314;-74
2021/09/10 07:36:52;;;;;;;;;6.00;6.00;;;;;22.65;100.00;101067.59;4999165;28;45460;-76
2021/09/10 07:39:19;;;;;;;;;5.25;5.00;;;;;22.71;100.00;101066.38;5017243;28;45354;-75
2021/09/10 07:41:46;;;;;;;;;5.50;4.75;;;;;22.73;100.00;101073.31;5014960;28;46628;-75
2021/09/10 07:44:13;;;;;;;;;8.25;6.00;;;;;22.55;100.00;101050.44;5016830;28;45355;-76
2021/09/10 07:46:43;;;;;;;;;4.75;4.00;;;;;22.67;100.00;101076.34;5015578;28;45434;-76
2021/09/10 07:49:09;;;;;;;;;5.00;5.00;;;;;22.69;100.00;101090.41;5017111;28;45382;-75
2021/09/10 07:51:36;;;;;;;;;6.25;5.25;;;;;22.66;100.00;101084.41;5016576;28;46521;-75
2021/09/10 07:54:03;;;;;;;;;6.25;5.50;;;;;22.69;100.00;101087.75;5016254;28;45234;-76
2021/09/10 07:56:28;;;;;;;;;4.75;4.50;;;;;22.82;100.00;101095.88;5016303;28;45565;-75
2021/09/10 07:58:54;;;;;;;;;6.00;5.50;;;;;22.85;100.00;101085.91;5016927;28;45437;-76
2021/09/10 08:01:19;;;;;;;;;6.25;4.75;;;;;22.83;100.00;101071.81;5016800;28;46096;-75
2021/09/10 08:03:44;;;;;;;;;6.50;6.00;;;;;23.06;100.00;101093.56;5016653;28;45413;-76
2021/09/10 08:06:10;;;;;;;;;4.00;4.00;;;;;23.06;100.00;101082.91;5016018;28;45281;-76
2021/09/10 08:08:35;;;;;;;;;6.25;5.00;;;;;23.15;100.00;101099.19;5017035;28;45473;-75
2021/09/10 08:11:01;;;;;;;;;7.50;6.50;;;;;23.23;100.00;101107.56;4998414;28;47651;-76
2021/09/10 08:13:26;;;;;;;;;4.25;4.00;;;;;23.26;100.00;101100.34;5016248;28;45457;-76
2021/09/10 08:15:51;;;;;;;;;6.25;4.75;;;;;23.40;100.00;101103.88;5016388;28;45423;-75
2021/09/10 08:18:17;;;;;;;;;4.75;4.75;;;;;23.49;100.00;101116.63;5016329;28;45389;-76
2021/09/10 08:20:42;;;;;;;;;5.00;4.00;;;;;23.55;100.00;101117.22;5016543;28;46759;-77
2021/09/10 08:23:07;;;;;;;;;6.00;4.50;;;;;23.53;100.00;101104.81;5016319;28;45456;-76
2021/09/10 08:25:33;;;;;;;;;5.75;4.75;;;;;23.70;100.00;101110.94;5016345;28;45654;-76
2021/09/10 08:27:58;;;;;;;;;6.25;6.25;;;;;23.77;100.00;101112.28;5016014;28;45471;-75
2021/09/10 08:30:24;;;;;;;;;4.75;4.75;;;;;23.93;100.00;101112.13;5016132;28;46229;-75
2021/09/10 08:32:50;;;;;;;;;6.50;6.00;;;;;24.03;100.00;101102.59;5016412;28;45343;-76
2021/09/10 08:35:15;;;;;;;;;4.50;4.00;;;;;24.19;100.00;101113.13;5016472;28;45326;-77
2021/09/10 08:37:41;;;;;;;;;3.75;3.75;;;;;24.22;100.00;101113.78;5015504;28;45496;-77
2021/09/10 08:40:07;;;;;;;;;4.00;4.00;;;;;24.21;100.00;101124.53;5016293;28;45461;-78
2021/09/10 08:42:33;;;;;;;;;5.00;5.00;;;;;24.09;100.00;101108.38;4998019;28;46009;-77
2021/09/10 08:44:58;;;;;;;;;4.25;4.00;;;;;24.21;100.00;101105.88;5016012;28;45307;-78
2021/09/10 08:47:24;;;;;;;;;4.25;4.25;;;;;24.30;100.00;101111.50;5016690;28;45335;-78
2021/09/10 08:49:52;;;;;;;;;5.00;4.25;;;;;24.31;100.00;101112.34;5015274;28;45405;-77
2021/09/10 08:52:17;;;;;;;;;4.75;4.00;;;;;24.29;100.00;101125.81;5015723;28;45613;-77
2021/09/10 08:54:43;;;;;;;;;4.00;4.00;;;;;24.18;100.00;101119.41;5016105;28;45473;-75
2021/09/10 08:57:08;;;;;;;;;5.75;3.75;;;;;24.09;100.00;101127.06;5016151;28;45373;-76
2021/09/10 08:59:34;;;;;;;;;3.00;3.00;;;;;24.01;100.00;101121.38;5014856;28;46601;-77
2021/09/10 09:02:00;;;;;;;;;3.75;3.50;;;;;24.00;100.00;101130.34;5015893;28;45386;-76
2021/09/10 09:04:36;;;;;;;;;2.75;2.75;;;;;23.97;100.00;101124.31;5015819;28;45432;-76
2021/09/10 09:07:07;;;;;;;;;3.25;2.75;;;;;24.11;100.00;101140.31;5015855;28;45385;-76
2021/09/10 09:09:47;;;;;;;;;3.75;3.00;;;;;24.24;100.00;101143.03;5014406;28;47417;-77
2021/09/10 09:12:30;;;;;;;;;4.00;4.00;;;;;24.35;100.00;101122.72;5015429;28;45260;-77
2021/09/10 09:14:59;;;;;;;;;5.00;4.50;;;;;24.79;100.00;101134.06;5015380;28;45306;-77
2021/09/10 09:17:24;;;;;;;;;4.00;3.00;;;;;25.23;100.00;101125.72;5015757;28;45408;-78
2021/09/10 09:20:25;;;;;;;;;4.00;4.00;;;;;25.69;100.00;101133.22;5018836;28;45441;-76
2021/09/10 09:22:51;;;;;;;;;4.50;4.50;;;;;25.91;100.00;101133.41;5002685;28;45735;-76
2021/09/10 09:25:16;;;;;;;;;4.25;3.75;;;;;25.83;100.00;101127.75;5019156;28;45271;-76
2021/09/10 09:27:41;;;;;;;;;5.00;4.25;;;;;25.79;100.00;101132.44;5018991;28;45417;-76
2021/09/10 09:30:07;;;;;;;;;3.75;3.75;;;;;25.75;100.00;101143.47;5018703;28;46334;-76
2021/09/10 09:32:47;;;;;;;;;4.00;4.00;;;;;25.59;100.00;101131.19;5017843;28;45359;-76
2021/09/10 09:35:12;;;;;;;;;5.00;4.00;;;;;25.58;100.00;101132.16;5018828;28;45496;-76
2021/09/10 09:37:37;;;;;;;;;4.00;3.50;;;;;25.64;100.00;101141.53;5019249;28;45467;-76
2021/09/10 09:40:03;;;;;;;;;3.25;3.00;;;;;25.66;100.00;101136.94;5018918;28;46164;-76
2021/09/10 09:42:34;;;;;;;;;4.25;4.00;;;;;25.65;100.00;101137.91;5017350;28;45688;-77
2021/09/10 09:45:13;;;;;;;;;5.25;4.00;;;;;25.76;100.00;101142.50;5018910;28;45414;-77
2021/09/10 09:47:40;;;;;;;;;4.00;4.00;;;;;25.80;100.00;101135.97;5018279;28;45247;-77
2021/09/10 09:50:11;;;;;;;;;5.00;5.00;;;;;25.81;100.00;101140.38;5018450;28;46658;-76
2021/09/10 09:52:37;;;;;;;;;4.00;4.00;;;;;25.83;100.00;101141.97;5000632;28;46047;-77
2021/09/10 09:55:04;;;;;;;;;5.50;5.00;;;;;25.88;100.00;101147.84;5018982;28;45307;-76
2021/09/10 09:57:31;;;;;;;;;4.00;4.00;;;;;25.93;100.00;101142.16;5016757;28;45481;-76
2021/09/10 09:59:57;;;;;;;;;5.25;4.25;;;;;25.97;100.00;101124.06;5018424;28;45634;-76
2021/09/10 10:02:22;;;;;;;;;4.00;4.00;;;;;26.04;100.00;101122.66;5000634;28;45645;-75
2021/09/10 10:04:48;;;;;;;;;5.00;5.00;;;;;26.13;100.00;101130.00;5018728;28;45348;-76
2021/09/10 10:07:16;;;;;;;;;5.00;4.00;;;;;26.16;100.00;101129.78;5000037;28;45472;-77
2021/09/10 10:09:43;;;;;;;;;4.25;3.00;;;;;26.30;100.00;101137.66;5017930;28;46160;-75
2021/09/10 10:12:11;;;;;;;;;4.00;3.00;;;;;26.46;100.00;101124.88;5018170;28;45226;-76
2021/09/10 10:14:41;;;;;;;;;4.25;3.50;;;;;26.94;100.00;101129.34;5018394;28;45277;-76
2021/09/10 10:17:39;;;;;;;;;3.50;3.50;;;;;27.89;100.00;101134.34;5017832;28;45359;-77
2021/09/10 10:20:05;;;;;;;;;3.00;3.00;;;;;29.38;100.00;101126.28;4899877;29;46270;-76
2021/09/10 10:22:42;;;;;;;;;3.00;2.50;;;;;30.52;100.00;101123.25;4899208;29;45568;-75
2021/09/10 10:25:10;;;;;;;;;4.00;3.00;;;;;31.77;100.00;101116.81;4899827;29;45352;-76
2021/09/10 10:27:38;;;;;;;;;3.00;3.00;;;;;33.73;100.00;101112.09;4900595;28;45344;-76
2021/09/10 10:30:17;;;;;;;;;2.00;2.00;;;;;34.08;100.00;101115.63;4916913;28;46487;-76
2021/09/10 10:32:53;;;;;;;;;3.25;3.00;;;;;34.89;100.00;101113.06;4918642;28;45453;-76
2021/09/10 10:35:20;;;;;;;;;2.00;2.00;;;;;35.59;100.00;101094.22;4918425;28;45461;-76
2021/09/10 10:38:04;;;;;;;;;2.00;1.00;;;;;36.46;100.00;101108.56;4902615;28;45383;-75
2021/09/10 10:40:44;;;;;;;;;2.75;2.25;;;;;36.19;97.44;101103.59;4917364;28;47370;-76
2021/09/10 10:43:22;;;;;;;;;2.50;1.75;;;;;34.52;95.66;101097.25;4918148;28;45436;-75
2021/09/10 10:45:47;;;;;;;;;2.75;2.00;;;;;33.01;99.94;101105.22;4918289;28;45361;-75
2021/09/10 10:48:33;;;;;;;;;2.00;2.00;;;;;31.82;100.00;101100.16;4918356;28;45449;-76
2021/09/10 10:51:13;;;;;;;;;4.00;3.00;;;;;32.33;100.00;101104.97;4917358;28;46308;-75
2021/09/10 10:53:44;;;;;;;;;2.00;1.75;;;;;31.86;100.00;101097.00;4918194;28;45602;-75
2021/09/10 10:56:22;;;;;;;;;3.00;3.00;;;;;31.38;100.00;101097.22;4987978;28;45422;-74
2021/09/10 10:59:17;;;;;;;;;2.00;2.00;;;;;31.22;100.00;101091.56;5018081;28;45474;-75
2021/09/10 11:02:20;;;;;;;;;1.00;1.00;;;;;30.94;100.00;101098.72;5005760;28;45472;-74
2021/09/10 11:04:47;;;;;;;;;2.75;2.75;;;;;30.18;100.00;101104.81;5012211;28;45611;-76
2021/09/10 11:07:13;;;;;;;;;2.00;2.00;;;;;29.47;100.00;101101.31;4997866;28;45386;-76
2021/09/10 11:09:40;;;;;;;;;3.00;2.75;;;;;28.72;100.00;101120.31;4997972;28;45272;-77
2021/09/10 11:12:05;;;;;;;;;4.25;4.00;;;;;28.00;100.00;101120.03;5008186;28;45635;-75
2021/09/10 11:14:37;;;;;;;;;2.75;2.00;;;;;27.38;100.00;101107.97;5017555;28;45353;-75
2021/09/10 11:17:13;;;;;;;;;3.00;2.00;;;;;27.12;100.00;101114.50;5017597;28;45428;-75